Panther Z — SVA6026 — position and weather

sailwx.info

Track history (hours):
 
Tides and Currents Weather Stations Pressure Air Temp Water Temp Dewpoint Dewpoint Depression Visibility Wind Speed Wind Dir Waves Ship Positions

Panther Z

Last reported at 2018-Jan-18 06:01 UTC. Time now 2018-Jan-18 06:18 UTC.
Position N 37°58' E 023°37'.

Length 30 m; draft 4 m.

Type: Tug. MMSI: 239842700.

Date/timePositionNaut miles runAvg speedWind from/ knotsBaromVisibWave heightAir tempDewpointWater temp
2018-Jan-18 06:01N 37°58' E 023°37'0 0.0
2018-Jan-18 05:31N 37°58' E 023°37'0 0.0
2018-Jan-18 05:01N 37°58' E 023°37'0 0.0
2018-Jan-18 04:30N 37°58' E 023°37'0 0.0
2018-Jan-18 04:00N 37°58' E 023°37'0 0.0
2018-Jan-18 03:31N 37°58' E 023°37'0 0.0
2018-Jan-18 03:01N 37°58' E 023°37'0 0.0
2018-Jan-18 02:31N 37°58' E 023°37'0 0.0
2018-Jan-18 02:01N 37°58' E 023°37'  
2018-Jan-11 18:55N 37°57' E 023°37'2 4.1
2018-Jan-11 18:30N 37°57' E 023°35'4 8.3
2018-Jan-11 18:00N 38°01' E 023°33'2 3.1
2018-Jan-11 17:30N 38°02' E 023°32'0 0.7
2018-Jan-11 17:00N 38°02' E 023°32'0 0.0
2018-Jan-11 16:31N 38°02' E 023°32'0 0.0
2018-Jan-11 16:01N 38°02' E 023°32'0 0.0
2018-Jan-11 15:30N 38°02' E 023°32'4 8.4
2018-Jan-11 15:00N 37°58' E 023°33'3 6.3
2018-Jan-11 14:30N 37°57' E 023°37'0 0.0
2018-Jan-11 14:00N 37°57' E 023°37'0 0.0
2018-Jan-11 13:30N 37°57' E 023°37'0 0.0
2018-Jan-11 13:00N 37°57' E 023°37'0 0.0
2018-Jan-11 12:30N 37°57' E 023°37'0 0.0
2018-Jan-11 12:00N 37°57' E 023°37'0 0.0
2018-Jan-11 11:30N 37°57' E 023°37'0 0.0
2018-Jan-11 11:00N 37°57' E 023°37'0 0.0
2018-Jan-11 10:30N 37°57' E 023°37'0 0.0
2018-Jan-11 10:00N 37°57' E 023°37'0 0.0
2018-Jan-11 09:30N 37°57' E 023°37'0 0.0
2018-Jan-11 09:00N 37°57' E 023°37'0 0.0
2018-Jan-11 08:30N 37°57' E 023°37'0 0.0
2018-Jan-11 08:00N 37°57' E 023°37'0 0.0
2018-Jan-11 07:30N 37°57' E 023°37'0 0.0
2018-Jan-11 07:00N 37°57' E 023°37'0 0.0
2018-Jan-11 06:30N 37°57' E 023°37'0 0.0
2018-Jan-11 06:00N 37°57' E 023°37'0 0.0
2018-Jan-11 05:30N 37°57' E 023°37'0 0.0
2018-Jan-11 05:00N 37°57' E 023°37'0 0.0
2018-Jan-11 04:30N 37°58' E 023°37'0 0.0
2018-Jan-11 04:00N 37°57' E 023°37'0 0.0
2018-Jan-10 12:19N 37°57' E 023°37'0 0.0
2018-Jan-10 12:01N 37°57' E 023°37'0 0.0
2018-Jan-10 11:31N 37°57' E 023°37'0 0.0
2018-Jan-10 11:01N 37°57' E 023°37'0 0.0
2018-Jan-10 10:30N 37°57' E 023°37'0 0.0
2018-Jan-10 10:00N 37°57' E 023°37'0 0.0
2018-Jan-10 09:30N 37°58' E 023°37'0 0.0
2018-Jan-10 09:01N 37°57' E 023°37'0 0.0
2018-Jan-10 08:30N 37°57' E 023°37'0 0.0
2018-Jan-10 08:01N 37°57' E 023°37'0 0.0
2018-Jan-10 07:31N 37°57' E 023°37'0 0.0
2018-Jan-10 07:00N 37°57' E 023°37'0 0.0
2018-Jan-10 06:30N 37°57' E 023°37'0 0.0
2018-Jan-10 06:00N 37°57' E 023°37'0 0.0
2018-Jan-10 05:30N 37°57' E 023°37'0 0.0
2018-Jan-10 05:01N 37°57' E 023°37'0 0.0
2018-Jan-10 04:31N 37°57' E 023°37'0 0.0
2018-Jan-10 04:01N 37°57' E 023°37'0 0.0
2018-Jan-09 12:16N 37°57' E 023°37'0 0.0
2018-Jan-09 12:01N 37°57' E 023°37'0 0.0
2018-Jan-09 11:30N 37°57' E 023°37'0 0.0
2018-Jan-09 11:00N 37°58' E 023°37'0 0.0
2018-Jan-09 10:30N 37°57' E 023°37'0 0.0
2018-Jan-09 10:00N 37°57' E 023°37'0 0.0
2018-Jan-09 09:30N 37°57' E 023°37'0 0.1
2018-Jan-09 05:11N 37°57' E 023°36'1 6.0
2018-Jan-09 05:00N 37°57' E 023°35'0 0.5
2018-Jan-09 04:30N 37°57' E 023°35'1 0.1
2018-Jan-08 19:47N 37°57' E 023°36'2 7.4
2018-Jan-08 19:30N 37°57' E 023°33'0 0.6
2018-Jan-08 19:00N 37°58' E 023°33'0 0.0
2018-Jan-08 18:27N 37°58' E 023°33'0 0.0
2018-Jan-08 17:52N 37°58' E 023°33'0 0.0
2018-Jan-08 17:30N 37°58' E 023°33'0 0.0
2018-Jan-08 16:59N 37°58' E 023°33'0 0.0
2018-Jan-08 16:28N 37°58' E 023°33'1 1.8
2018-Jan-08 16:00N 37°58' E 023°33'3 7.1
2018-Jan-08 15:30N 38°02' E 023°32'2 3.4
2018-Jan-08 15:00N 38°00' E 023°33'3 6.8
2018-Jan-08 14:30N 37°57' E 023°35'2 3.2
2018-Jan-08 14:00N 37°58' E 023°37'0 0.0
2018-Jan-08 13:30N 37°58' E 023°37'0 0.0
2018-Jan-08 13:00N 37°58' E 023°37'0 0.0
2018-Jan-08 12:30N 37°58' E 023°37'0 0.0
2018-Jan-08 12:00N 37°58' E 023°37'0 0.0
2018-Jan-08 11:30N 37°58' E 023°37'0 0.0
2018-Jan-08 11:00N 37°58' E 023°37'0 0.0
2018-Jan-08 10:30N 37°58' E 023°37'0 0.0
2018-Jan-08 10:00N 37°58' E 023°37'0 0.0
2018-Jan-08 09:30N 37°58' E 023°37'1 1.5
2018-Jan-08 09:00N 37°57' E 023°36'0 0.6
2018-Jan-08 08:30N 37°57' E 023°36'0 0.1
2018-Jan-08 08:00N 37°57' E 023°36'1 2.0
2018-Jan-08 07:30N 37°58' E 023°37'0 0.0
2018-Jan-08 07:01N 37°58' E 023°37'0 0.0
2018-Jan-08 06:30N 37°58' E 023°37'  
Track history (hours):
 
Tides and Currents Weather Stations Pressure Air Temp Water Temp Dewpoint Dewpoint Depression Visibility Wind Speed Wind Dir Waves Ship Positions

Panther Z

Last reported at 2018-Jan-18 06:01 UTC. Time now 2018-Jan-18 06:18 UTC.
Position N 37°58' E 023°37'.

Length 30 m; draft 4 m.

Type: Tug. MMSI: 239842700.

Date/timePositionNaut miles runAvg speedWind from/ knotsBaromVisibWave heightAir tempDewpointWater temp
2018-Jan-18 06:01N 37°58' E 023°37'0 0.0
2018-Jan-18 05:31N 37°58' E 023°37'0 0.0
2018-Jan-18 05:01N 37°58' E 023°37'0 0.0
2018-Jan-18 04:30N 37°58' E 023°37'0 0.0
2018-Jan-18 04:00N 37°58' E 023°37'0 0.0
2018-Jan-18 03:31N 37°58' E 023°37'0 0.0
2018-Jan-18 03:01N 37°58' E 023°37'0 0.0
2018-Jan-18 02:31N 37°58' E 023°37'0 0.0
2018-Jan-18 02:01N 37°58' E 023°37'  
2018-Jan-11 18:55N 37°57' E 023°37'2 4.1
2018-Jan-11 18:30N 37°57' E 023°35'4 8.3
2018-Jan-11 18:00N 38°01' E 023°33'2 3.1
2018-Jan-11 17:30N 38°02' E 023°32'0 0.7
2018-Jan-11 17:00N 38°02' E 023°32'0 0.0
2018-Jan-11 16:31N 38°02' E 023°32'0 0.0
2018-Jan-11 16:01N 38°02' E 023°32'0 0.0
2018-Jan-11 15:30N 38°02' E 023°32'4 8.4
2018-Jan-11 15:00N 37°58' E 023°33'3 6.3
2018-Jan-11 14:30N 37°57' E 023°37'0 0.0
2018-Jan-11 14:00N 37°57' E 023°37'0 0.0
2018-Jan-11 13:30N 37°57' E 023°37'0 0.0
2018-Jan-11 13:00N 37°57' E 023°37'0 0.0
2018-Jan-11 12:30N 37°57' E 023°37'0 0.0
2018-Jan-11 12:00N 37°57' E 023°37'0 0.0
2018-Jan-11 11:30N 37°57' E 023°37'0 0.0
2018-Jan-11 11:00N 37°57' E 023°37'0 0.0
2018-Jan-11 10:30N 37°57' E 023°37'0 0.0
2018-Jan-11 10:00N 37°57' E 023°37'0 0.0
2018-Jan-11 09:30N 37°57' E 023°37'0 0.0
2018-Jan-11 09:00N 37°57' E 023°37'0 0.0
2018-Jan-11 08:30N 37°57' E 023°37'0 0.0
2018-Jan-11 08:00N 37°57' E 023°37'0 0.0
2018-Jan-11 07:30N 37°57' E 023°37'0 0.0
2018-Jan-11 07:00N 37°57' E 023°37'0 0.0
2018-Jan-11 06:30N 37°57' E 023°37'0 0.0
2018-Jan-11 06:00N 37°57' E 023°37'0 0.0
2018-Jan-11 05:30N 37°57' E 023°37'0 0.0
2018-Jan-11 05:00N 37°57' E 023°37'0 0.0
2018-Jan-11 04:30N 37°58' E 023°37'0 0.0
2018-Jan-11 04:00N 37°57' E 023°37'0 0.0
2018-Jan-10 12:19N 37°57' E 023°37'0 0.0
2018-Jan-10 12:01N 37°57' E 023°37'0 0.0
2018-Jan-10 11:31N 37°57' E 023°37'0 0.0
2018-Jan-10 11:01N 37°57' E 023°37'0 0.0
2018-Jan-10 10:30N 37°57' E 023°37'0 0.0
2018-Jan-10 10:00N 37°57' E 023°37'0 0.0
2018-Jan-10 09:30N 37°58' E 023°37'0 0.0
2018-Jan-10 09:01N 37°57' E 023°37'0 0.0
2018-Jan-10 08:30N 37°57' E 023°37'0 0.0
2018-Jan-10 08:01N 37°57' E 023°37'0 0.0
2018-Jan-10 07:31N 37°57' E 023°37'0 0.0
2018-Jan-10 07:00N 37°57' E 023°37'0 0.0
2018-Jan-10 06:30N 37°57' E 023°37'0 0.0
2018-Jan-10 06:00N 37°57' E 023°37'0 0.0
2018-Jan-10 05:30N 37°57' E 023°37'0 0.0
2018-Jan-10 05:01N 37°57' E 023°37'0 0.0
2018-Jan-10 04:31N 37°57' E 023°37'0 0.0
2018-Jan-10 04:01N 37°57' E 023°37'0 0.0
2018-Jan-09 12:16N 37°57' E 023°37'0 0.0
2018-Jan-09 12:01N 37°57' E 023°37'0 0.0
2018-Jan-09 11:30N 37°57' E 023°37'0 0.0
2018-Jan-09 11:00N 37°58' E 023°37'0 0.0
2018-Jan-09 10:30N 37°57' E 023°37'0 0.0
2018-Jan-09 10:00N 37°57' E 023°37'0 0.0
2018-Jan-09 09:30N 37°57' E 023°37'0 0.1
2018-Jan-09 05:11N 37°57' E 023°36'1 6.0
2018-Jan-09 05:00N 37°57' E 023°35'0 0.5
2018-Jan-09 04:30N 37°57' E 023°35'1 0.1
2018-Jan-08 19:47N 37°57' E 023°36'2 7.4
2018-Jan-08 19:30N 37°57' E 023°33'0 0.6
2018-Jan-08 19:00N 37°58' E 023°33'0 0.0
2018-Jan-08 18:27N 37°58' E 023°33'0 0.0
2018-Jan-08 17:52N 37°58' E 023°33'0 0.0
2018-Jan-08 17:30N 37°58' E 023°33'0 0.0
2018-Jan-08 16:59N 37°58' E 023°33'0 0.0
2018-Jan-08 16:28N 37°58' E 023°33'1 1.8
2018-Jan-08 16:00N 37°58' E 023°33'3 7.1
2018-Jan-08 15:30N 38°02' E 023°32'2 3.4
2018-Jan-08 15:00N 38°00' E 023°33'3 6.8
2018-Jan-08 14:30N 37°57' E 023°35'2 3.2
2018-Jan-08 14:00N 37°58' E 023°37'0 0.0
2018-Jan-08 13:30N 37°58' E 023°37'0 0.0
2018-Jan-08 13:00N 37°58' E 023°37'0 0.0
2018-Jan-08 12:30N 37°58' E 023°37'0 0.0
2018-Jan-08 12:00N 37°58' E 023°37'0 0.0
2018-Jan-08 11:30N 37°58' E 023°37'0 0.0
2018-Jan-08 11:00N 37°58' E 023°37'0 0.0
2018-Jan-08 10:30N 37°58' E 023°37'0 0.0
2018-Jan-08 10:00N 37°58' E 023°37'0 0.0
2018-Jan-08 09:30N 37°58' E 023°37'1 1.5
2018-Jan-08 09:00N 37°57' E 023°36'0 0.6
2018-Jan-08 08:30N 37°57' E 023°36'0 0.1
2018-Jan-08 08:00N 37°57' E 023°36'1 2.0
2018-Jan-08 07:30N 37°58' E 023°37'0 0.0
2018-Jan-08 07:01N 37°58' E 023°37'0 0.0
2018-Jan-08 06:30N 37°58' E 023°37'  

Dump ship's entire track history